INFORMACIÓN METAR y TAF
METAR FOR LEGE
ADDS - METARS form results

(2107 UTC 17 November 2019)
Data provider http://aviationweather.gov/metar/data/
 
METAR text: LEGE 172100Z 18004KT 120V230 9999 FEW050 04/03 Q1008
Conditions at: LEGE (GERONA/COSTA BRA, ES) observed 2100 UTC 17 November 2019
Temperature: 4.0°C (39°F)
Dewpoint: 3.0°C (37°F) [RH = 93%]
Pressure (altimeter): 29.76 inches Hg (1008.0 mb)
Winds: from the S (180 degrees) at 5 MPH (4 knots; 2.1 m/s)
Visibility: 6 or more miles (10+ km)
Ceiling: at least 12,000 feet AGL
Clouds: few clouds at 5000 feet AGL
Weather: no significant weather observed at this time

METAR text: LEGE 172030Z 05003KT 020V080 CAVOK 04/03 Q1008
Conditions at: LEGE (GERONA/COSTA BRA, ES) observed 2030 UTC 17 November 2019
Temperature: 4.0°C (39°F)
Dewpoint: 3.0°C (37°F) [RH = 93%]
Pressure (altimeter): 29.76 inches Hg (1008.0 mb)
Winds: from the NE (50 degrees) at 3 MPH (3 knots; 1.5 m/s)
Visibility: 6 or more miles (10+ km)
Ceiling: ceiling and visibility are OK
Clouds: unknown
Weather: no significant weather observed at this time

Forecast for: LEGE (GERONA/COSTA BRA, ES)
Text: TAF LEGE 171700Z 1718/1818 VRB04KT 9999 FEW020 TX14/1813Z TN03/1806Z
Forecast period: 1800 UTC 17 November 2019 to 1800 UTC 18 November 2019
Forecast type: FROM: standard forecast or significant change
Winds: variable direction winds at 5 MPH (4 knots; 2.1 m/s)
Visibility: 6 or more miles 10+ km)
Ceiling: at least 12,000 feet AGL
Clouds: few clouds at 2000 feet AGL
Weather: no significant weather forecast for this period
Text: PROB40
Forecast period: 0600 to 1200 UTC 18 November 2019
Forecast type: TEMPORARY: The following changes expected for less than half the time period
Winds: from the NNE (20 degrees) at 9 MPH (8 knots; 4.1 m/s)
Visibility: missing
Ceiling: 3000 feet AGL
Clouds: broken clouds at 3000 feet AGL
Weather: RA  (moderate rain)

 MAPA DE AEROPUERTO

 INFORMACIÓN DE PISTA
Pista 02 Longitud 7874 ft Ancho 148 ft
Elevación 403 ft Umbral desplazado 0 ft Rumbo de pista 16
Pista 20 Longitud 7874 ft Ancho 148 ft
Elevación 468 ft Umbral desplazado 0 ft Rumbo de pista 196

 FRECUANCIAS DEL AEROPUERTO
Tipo APP Nombre APP Frecuencia 120.9 MHZ
Tipo GND Nombre GND Frecuencia 121.7 MHZ
Tipo TWR Nombre TWR Frecuencia 118.5 MHZ

 RADIO AYUDAS DEL AEROPUERTO
Tipo VOR-DME Nombre Gerona Frecuencia 114100 KHZ
Tipo NDB Nombre Gerona Frecuencia 412 KHZ



Powered by Virtual Airlines Manager [v2.6.2]